Time;durP1;ratioP1;P1;durP2;ratioP2;P2;SDS_P1;SDS_P2;PMS_P1;PMS_P2;Temp;Humidity;BMP_temperature;BMP_pressure;BME280_temperature;BME280_humidity;BME280_pressure;Samples;Min_cycle;Max_cycle;Signal;HPM_P1;HPM_P2
2022/05/20 00:00:26;;;;;;;5.10;3.22;;;;;;;8.74;58.76;99730.22;5033843;28;20037;-58
2022/05/20 00:02:51;;;;;;;4.90;2.88;;;;;;;8.74;57.77;99730.22;5033008;28;20063;-56
2022/05/20 00:05:17;;;;;;;4.75;2.78;;;;;;;8.71;57.85;99729.59;5046525;28;20102;-57
2022/05/20 00:07:43;;;;;;;6.25;2.75;;;;;;;8.72;57.88;99723.28;5051450;28;20033;-56
2022/05/20 00:10:11;;;;;;;9.43;3.42;;;;;;;8.71;58.34;99738.47;5051358;28;20029;-55
2022/05/20 00:12:37;;;;;;;3.97;3.00;;;;;;;8.71;58.20;99733.13;5035502;28;20092;-57
2022/05/20 00:15:07;;;;;;;6.28;3.20;;;;;;;8.74;58.67;99737.38;5043666;28;20060;-56
2022/05/20 00:17:33;;;;;;;7.22;3.15;;;;;;;8.70;58.29;99734.09;5053098;28;20043;-55
2022/05/20 00:19:59;;;;;;;7.10;3.17;;;;;;;8.74;57.74;99745.38;5053633;28;20060;-59
2022/05/20 00:22:25;;;;;;;7.82;3.00;;;;;;;8.57;57.19;99709.28;5053026;28;20036;-52
2022/05/20 00:27:36;;;;;;;5.72;3.13;;;;;;;8.74;57.24;99742.72;5033057;28;20216;-57
2022/05/20 00:30:02;;;;;;;6.57;2.95;;;;;;;8.73;57.00;99749.00;5042434;28;20479;-57
2022/05/20 00:32:28;;;;;;;6.38;2.65;;;;;;;8.64;56.26;99750.53;5051730;28;20095;-54
2022/05/20 00:34:54;;;;;;;4.53;2.70;;;;;;;8.64;56.34;99755.88;5041264;28;20033;-57
2022/05/20 00:37:20;;;;;;;7.43;2.50;;;;;;;8.57;56.44;99765.31;5032906;28;20036;-62
2022/05/20 00:39:45;;;;;;;3.10;2.47;;;;;;;8.51;56.14;99771.94;5032791;28;20104;-53
2022/05/20 00:42:13;;;;;;;2.78;2.22;;;;;;;8.47;56.12;99775.78;5031029;28;20120;-54
2022/05/20 00:44:39;;;;;;;2.45;2.20;;;;;;;8.36;56.23;99765.88;5039114;28;20036;-56
2022/05/20 00:47:05;;;;;;;3.08;2.38;;;;;;;8.35;56.12;99772.19;5052344;28;20409;-57
2022/05/20 00:49:32;;;;;;;3.17;1.88;;;;;;;8.31;56.02;99776.88;5045720;28;20099;-57
2022/05/20 00:51:58;;;;;;;2.28;1.95;;;;;;;8.24;55.70;99770.28;5032228;28;20055;-54
2022/05/20 00:54:30;;;;;;;3.83;2.10;;;;;;;8.24;54.93;99778.28;5039168;28;20025;-60
2022/05/20 00:57:04;;;;;;;2.13;1.73;;;;;;;8.27;55.12;99782.56;5052031;28;20037;-56
2022/05/20 00:59:32;;;;;;;3.20;2.13;;;;;;;8.22;55.03;99793.53;5052316;28;20024;-57
2022/05/20 01:02:06;;;;;;;4.55;2.30;;;;;;;8.21;54.97;99791.00;5052127;28;20071;-57
2022/05/20 01:04:32;;;;;;;2.10;1.90;;;;;;;8.11;54.57;99794.31;5043982;28;20033;-58
2022/05/20 01:06:59;;;;;;;2.30;1.70;;;;;;;8.00;54.19;99802.22;5032066;28;20033;-55
2022/05/20 01:09:24;;;;;;;2.25;1.75;;;;;;;7.92;54.45;99801.88;5032182;28;20037;-57
2022/05/20 01:11:50;;;;;;;2.38;1.65;;;;;;;7.87;54.06;99802.22;5031854;28;20035;-57
2022/05/20 01:14:25;;;;;;;2.22;1.80;;;;;;;7.92;54.20;99804.56;5037087;28;20066;-58
2022/05/20 01:16:52;;;;;;;5.28;2.10;;;;;;;7.66;53.93;99761.91;5042579;28;20063;-55
2022/05/20 01:19:52;;;;;;;3.38;1.50;;;;;;;8.13;54.19;99821.72;5031854;28;20060;-55
2022/05/20 01:22:56;;;;;;;1.80;1.40;;;;;;;8.17;53.66;99823.19;5030488;28;20029;-55
2022/05/20 01:25:24;;;;;;;2.92;1.40;;;;;;;8.12;53.03;99828.00;5024540;28;20049;-56
2022/05/20 01:27:49;;;;;;;3.40;1.40;;;;;;;8.06;53.13;99823.13;5030214;28;20458;-54
2022/05/20 01:30:19;;;;;;;4.53;1.65;;;;;;;8.13;52.97;99829.72;5031185;28;20038;-56
2022/05/20 01:32:45;;;;;;;2.90;1.90;;;;;;;8.13;52.62;99829.72;5031559;28;20026;-59
2022/05/20 01:35:21;;;;;;;1.95;1.25;;;;;;;8.18;52.80;99846.25;5044024;28;20052;-52
2022/05/20 01:37:46;;;;;;;2.25;1.25;;;;;;;8.11;52.76;99833.47;5049924;28;20061;-58
2022/05/20 01:40:12;;;;;;;1.50;1.38;;;;;;;8.08;52.87;99844.31;5051073;28;20065;-56
2022/05/20 01:43:00;;;;;;;1.73;1.55;;;;;;;8.29;52.05;99839.31;5051334;28;20450;-57
2022/05/20 01:45:31;;;;;;;2.10;1.30;;;;;;;8.16;52.02;99836.66;5036312;28;20030;-55
2022/05/20 01:48:25;;;;;;;2.05;1.42;;;;;;;8.21;51.84;99841.69;5031136;28;20038;-56
2022/05/20 01:50:55;;;;;;;3.35;1.02;;;;;;;8.14;51.75;99842.09;5020500;28;20037;-56
2022/05/20 01:53:30;;;;;;;1.40;1.30;;;;;;;8.17;51.89;99849.88;5030131;28;20051;-55
2022/05/20 01:56:23;;;;;;;1.40;1.20;;;;;;;8.22;51.81;99848.72;5031141;28;20175;-57
2022/05/20 01:59:20;;;;;;;3.97;1.23;;;;;;;8.32;51.65;99852.44;5031949;28;20077;-56
2022/05/20 02:01:53;;;;;;;3.38;1.10;;;;;;;8.30;50.84;99859.69;5046814;28;20438;-56
2022/05/20 02:04:32;;;;;;;2.30;1.40;;;;;;;8.32;50.83;99863.09;5051044;28;20033;-54
2022/05/20 02:07:05;;;;;;;2.00;1.10;;;;;;;8.37;50.37;99865.44;5050911;28;20021;-55
2022/05/20 02:09:44;;;;;;;2.40;1.10;;;;;;;8.33;50.65;99843.47;5035887;28;20121;-56
2022/05/20 02:12:15;;;;;;;1.63;1.15;;;;;;;8.44;50.34;99864.91;5030873;28;20064;-58
2022/05/20 02:14:46;;;;;;;1.20;1.00;;;;;;;8.56;49.45;99875.69;5041163;28;20033;-56
2022/05/20 02:17:24;;;;;;;2.92;1.00;;;;;;;8.64;48.47;99867.13;5050774;28;20056;-57
2022/05/20 02:19:59;;;;;;;0.98;0.90;;;;;;;8.67;48.55;99878.44;5031863;28;20063;-56
2022/05/20 02:22:29;;;;;;;1.35;1.00;;;;;;;8.72;48.49;99872.75;5032117;28;20029;-54
2022/05/20 02:24:55;;;;;;;1.85;1.10;;;;;;;8.76;47.71;99872.44;5051089;28;20075;-54
2022/05/20 02:27:29;;;;;;;3.08;1.02;;;;;;;8.95;47.76;99871.09;5049304;28;20029;-55
2022/05/20 02:30:07;;;;;;;2.70;1.13;;;;;;;9.18;47.40;99884.59;5031857;28;20049;-58
2022/05/20 02:32:41;;;;;;;1.65;1.00;;;;;;;9.32;46.09;99876.38;5030245;28;20054;-58
2022/05/20 02:35:07;;;;;;;0.98;0.80;;;;;;;9.50;44.81;99881.31;5044209;28;20453;-56
2022/05/20 02:37:35;;;;;;;1.67;0.80;;;;;;;9.57;44.66;99887.91;5050672;28;20036;-56
2022/05/20 02:40:01;;;;;;;2.28;1.00;;;;;;;9.53;43.99;99889.09;5030619;28;20032;-57
2022/05/20 02:42:28;;;;;;;1.00;0.82;;;;;;;9.48;44.26;99877.91;5030444;28;20029;-57
2022/05/20 02:45:00;;;;;;;1.45;0.90;;;;;;;9.42;43.86;99884.56;5032836;28;20036;-57
2022/05/20 02:47:31;;;;;;;1.63;0.90;;;;;;;9.24;44.03;99885.94;5032159;28;20368;-54
2022/05/20 02:49:58;;;;;;;1.17;0.73;;;;;;;8.98;43.89;99876.22;5031865;28;20041;-57
2022/05/20 02:52:24;;;;;;;2.95;0.70;;;;;;;8.91;44.09;99885.63;5030320;28;20190;-55
2022/05/20 02:54:49;;;;;;;2.42;0.88;;;;;;;8.75;44.42;99884.09;5043334;28;20120;-57
2022/05/20 02:57:16;;;;;;;1.70;0.90;;;;;;;8.50;44.79;99865.47;5049298;28;20116;-55
2022/05/20 03:05:10;;;;;;;3.42;1.05;;;;;;;8.39;45.38;99896.38;5030690;28;20065;-55
2022/05/20 03:07:36;;;;;;;1.17;1.08;;;;;;;8.33;45.62;99896.81;5034162;28;20067;-56
2022/05/20 03:10:01;;;;;;;1.45;0.90;;;;;;;8.34;45.32;99909.19;5031134;28;20044;-55
2022/05/20 03:12:27;;;;;;;1.30;1.00;;;;;;;8.34;45.61;99909.19;5030422;28;20140;-53
2022/05/20 03:14:53;;;;;;;1.10;0.90;;;;;;;8.40;45.63;99910.59;5043914;28;20489;-58
2022/05/20 03:17:19;;;;;;;2.58;0.75;;;;;;;8.40;45.40;99915.91;5048627;28;20139;-55
2022/05/20 03:19:44;;;;;;;2.50;1.00;;;;;;;8.73;44.41;99918.03;5033954;28;20029;-55
2022/05/20 03:22:10;;;;;;;2.38;0.82;;;;;;;9.05;44.02;99882.81;5030517;28;20037;-54
2022/05/20 03:24:37;;;;;;;2.45;1.00;;;;;;;9.80;42.86;99912.03;5029789;28;20080;-66
2022/05/20 03:27:03;;;;;;;0.98;0.80;;;;;;;10.55;41.34;99909.03;5029774;28;20844;-60
2022/05/20 03:29:30;;;;;;;1.63;0.80;;;;;;;11.16;39.70;99900.53;5043509;28;20044;-58
2022/05/20 03:31:55;;;;;;;1.08;0.70;;;;;;;11.75;38.59;99913.59;5050203;28;20554;-60
2022/05/20 03:34:21;;;;;;;2.78;0.77;;;;;;;12.28;37.46;99914.53;5038725;28;20030;-60
2022/05/20 03:36:50;;;;;;;2.45;0.82;;;;;;;12.92;36.53;99918.81;5029842;28;20037;-59
2022/05/20 03:39:21;;;;;;;1.10;1.00;;;;;;;13.50;35.67;99921.75;5041141;28;20491;-59
2022/05/20 03:41:47;;;;;;;0.88;0.60;;;;;;;14.00;34.04;99917.22;5037691;28;20394;-60
2022/05/20 03:44:14;;;;;;;5.03;1.02;;;;;;;14.49;33.61;99927.84;5030582;28;20458;-60
2022/05/20 03:46:42;;;;;;;1.60;0.80;;;;;;;15.12;32.56;99937.13;5033753;28;20037;-60
2022/05/20 03:49:08;;;;;;;0.85;0.70;;;;;;;15.60;31.32;99932.38;5043338;28;20048;-59
2022/05/20 03:51:35;;;;;;;3.63;1.10;;;;;;;16.27;30.03;99949.16;5042269;28;20079;-53
2022/05/20 03:54:01;;;;;;;1.48;1.20;;;;;;;16.74;29.23;99956.88;5041331;28;20032;-54
2022/05/20 03:56:26;;;;;;;2.25;0.73;;;;;;;17.38;28.18;99935.88;5053174;28;20045;-56
2022/05/20 03:58:52;;;;;;;2.30;1.05;;;;;;;17.99;27.67;99949.13;5045524;28;20036;-58
2022/05/20 04:02:00;;;;;;;1.20;0.73;;;;;;;18.76;26.63;99945.97;5033637;28;20113;-58
2022/05/20 04:04:07;;;;;;;2.25;1.10;;;;;;;19.40;25.14;99951.50;5032384;28;20442;-57
2022/05/20 04:06:32;;;;;;;2.08;1.20;;;;;;;19.59;24.48;99956.47;5031867;28;20073;-58
2022/05/20 04:08:57;;;;;;;2.08;0.90;;;;;;;19.92;24.35;99947.25;5040770;28;20029;-56
2022/05/20 04:11:25;;;;;;;2.13;1.00;;;;;;;20.32;23.77;99955.25;5053389;28;20384;-55
2022/05/20 04:13:51;;;;;;;1.85;1.08;;;;;;;19.70;23.94;99963.34;5041992;28;20033;-57
2022/05/20 04:16:16;;;;;;;1.92;1.00;;;;;;;18.26;25.61;99966.06;5032906;28;20107;-55
2022/05/20 04:18:43;;;;;;;2.30;1.02;;;;;;;16.61;27.54;99941.09;5038470;28;20033;-56
2022/05/20 04:21:14;;;;;;;3.28;1.15;;;;;;;16.15;28.92;99976.41;5053098;28;20025;-59
2022/05/20 04:23:40;;;;;;;2.58;1.05;;;;;;;16.13;28.91;99964.09;5044499;28;20026;-59
2022/05/20 04:26:06;;;;;;;2.53;1.00;;;;;;;17.89;26.22;99971.81;5033015;28;20046;-59
2022/05/20 04:28:32;;;;;;;1.48;1.20;;;;;;;19.61;24.00;99976.13;5036356;28;20055;-54
2022/05/20 04:31:02;;;;;;;2.65;1.35;;;;;;;21.27;22.42;99979.19;5052516;28;20419;-58
2022/05/20 04:33:28;;;;;;;4.22;0.88;;;;;;;22.33;20.59;99966.84;5051273;28;20029;-59
2022/05/20 04:35:54;;;;;;;2.25;0.80;;;;;;;23.34;19.61;99973.78;5044488;28;20086;-58
2022/05/20 04:38:20;;;;;;;3.55;1.10;;;;;;;23.93;18.97;99976.91;5041726;28;20036;-56
2022/05/20 04:46:56;;;;;;;2.15;0.95;;;;;;;24.06;18.90;99988.91;5031293;28;20034;-56
2022/05/20 04:49:01;;;;;;;1.38;0.73;;;;;;;23.45;18.84;99985.19;5039045;28;20090;-55
2022/05/20 04:51:27;;;;;;;1.00;0.85;;;;;;;23.39;18.90;99996.91;5051302;28;20033;-57
2022/05/20 04:56:36;;;;;;;1.55;1.08;;;;;;;25.30;16.63;99979.28;5051696;28;20044;-57
2022/05/20 04:59:03;;;;;;;3.15;0.80;;;;;;;26.25;16.26;99979.56;5044817;28;20123;-57
2022/05/20 05:01:29;;;;;;;1.60;1.00;;;;;;;26.96;14.96;99969.19;5032186;28;20116;-58
2022/05/20 05:03:54;;;;;;;3.55;1.00;;;;;;;28.00;14.20;99961.88;5032102;28;20033;-55
2022/05/20 05:06:20;;;;;;;1.17;1.00;;;;;;;27.79;13.83;99971.50;5032198;28;20025;-51
2022/05/20 05:08:46;;;;;;;1.10;0.80;;;;;;;28.44;13.02;99972.59;5037423;28;20415;-54
2022/05/20 05:11:11;;;;;;;3.60;0.95;;;;;;;28.27;13.59;99968.88;5051804;28;20060;-53
2022/05/20 05:13:37;;;;;;;3.38;0.82;;;;;;;29.04;13.04;99973.41;5050715;28;20141;-54
2022/05/20 05:16:12;;;;;;;0.70;0.70;;;;;;;30.28;13.08;99985.97;5051938;28;20381;-56
2022/05/20 05:18:37;;;;;;;1.70;0.80;;;;;;;31.14;11.35;99947.94;5037343;28;20037;-57
2022/05/20 05:21:03;;;;;;;1.95;0.75;;;;;;;32.33;10.65;99982.38;5051410;28;20601;-54
2022/05/20 05:23:29;;;;;;;0.80;0.80;;;;;;;32.21;10.08;99981.72;5051399;28;20059;-52
2022/05/20 05:25:55;;;;;;;0.80;0.80;;;;;;;32.47;9.90;99981.94;5051847;28;20497;-55
2022/05/20 05:28:22;;;;;;;1.85;0.73;;;;;;;32.41;9.72;99981.06;5050784;28;20045;-55
2022/05/20 05:30:49;;;;;;;3.85;0.98;;;;;;;32.83;8.92;99979.38;5046868;28;20083;-58
2022/05/20 05:33:16;;;;;;;1.48;0.90;;;;;;;32.98;9.07;99975.03;5052182;28;20087;-53
2022/05/20 05:35:42;;;;;;;1.45;0.80;;;;;;;33.21;8.40;99977.38;5038388;28;20037;-55
2022/05/20 05:38:07;;;;;;;1.02;0.80;;;;;;;33.63;8.05;99992.22;5031558;28;20517;-54
2022/05/20 05:40:34;;;;;;;1.00;0.70;;;;;;;33.67;8.30;100000.00;5049385;28;20033;-55
2022/05/20 05:43:00;;;;;;;1.45;0.85;;;;;;;33.12;7.91;99973.44;5031378;28;20046;-54
2022/05/20 05:45:28;;;;;;;1.27;0.75;;;;;;;33.71;8.41;100001.09;5031735;28;20029;-56
2022/05/20 05:47:57;;;;;;;0.85;0.80;;;;;;;34.64;8.09;99992.81;5031643;28;20039;-56
2022/05/20 05:50:22;;;;;;;0.68;0.65;;;;;;;35.04;7.34;99977.16;5046440;28;20029;-57
2022/05/20 05:53:02;;;;;;;2.95;1.10;;;;;;;35.99;7.58;99997.81;5038710;28;20037;-56
2022/05/20 05:55:28;;;;;;;0.90;0.68;;;;;;;35.24;6.42;99988.47;5031455;28;20033;-54
2022/05/20 05:57:54;;;;;;;2.15;0.70;;;;;;;35.03;6.32;99983.84;5031250;28;20040;-57
2022/05/20 06:00:20;;;;;;;0.50;0.50;;;;;;;34.90;6.17;99996.38;5050919;28;20120;-56
2022/05/20 06:02:45;;;;;;;0.40;0.32;;;;;;;34.86;6.03;99994.44;5051305;28;20033;-56
2022/05/20 06:05:11;;;;;;;1.10;0.63;;;;;;;35.35;5.96;100002.06;5051336;28;20122;-55
2022/05/20 06:07:37;;;;;;;1.75;0.73;;;;;;;35.75;6.15;99998.53;5050450;28;20029;-57
2022/05/20 06:10:04;;;;;;;2.63;0.70;;;;;;;35.80;6.31;99995.69;5033707;28;20040;-54
2022/05/20 06:12:31;;;;;;;0.68;0.68;;;;;;;36.04;6.41;100006.16;5031121;28;20041;-52
2022/05/20 06:14:57;;;;;;;3.88;0.70;;;;;;;36.38;6.34;100005.28;5031290;28;20029;-54
2022/05/20 06:17:23;;;;;;;1.48;0.80;;;;;;;36.70;6.55;100011.41;5045920;28;20461;-53
2022/05/20 06:19:49;;;;;;;2.85;0.90;;;;;;;37.63;5.49;99999.16;5035932;28;20033;-51
2022/05/20 06:22:14;;;;;;;1.95;0.75;;;;;;;38.27;5.24;100006.25;5030629;28;20476;-51
2022/05/20 06:24:40;;;;;;;1.90;0.60;;;;;;;38.27;5.17;100000.66;5029295;28;20191;-51
2022/05/20 06:27:07;;;;;;;0.60;0.60;;;;;;;38.65;4.91;99994.97;5036821;28;20041;-54
2022/05/20 06:29:32;;;;;;;0.50;0.50;;;;;;;39.12;4.32;99994.88;5038095;28;20079;-53
2022/05/20 06:31:58;;;;;;;0.63;0.63;;;;;;;39.12;4.60;99994.06;5030576;28;20044;-54
2022/05/20 06:34:23;;;;;;;1.70;0.60;;;;;;;40.00;3.94;99992.09;5030765;28;20026;-56
2022/05/20 06:39:51;;;;;;;1.98;1.02;;;;;;;40.27;4.20;99995.94;5044688;28;20037;-60
2022/05/20 06:42:19;;;;;;;1.77;0.80;;;;;;;40.19;3.93;99994.72;5030633;28;20050;-55
2022/05/20 06:44:45;;;;;;;1.42;0.90;;;;;;;40.49;3.89;99997.88;5039116;28;20036;-60
2022/05/20 06:47:12;;;;;;;2.60;0.80;;;;;;;40.43;3.67;99971.94;5039974;28;20039;-58
2022/05/20 06:49:37;;;;;;;1.52;0.95;;;;;;;40.40;3.76;99989.41;5049994;28;20033;-55
2022/05/20 06:52:03;;;;;;;1.15;0.98;;;;;;;40.74;3.51;99982.31;5050067;28;20025;-55
2022/05/20 06:54:29;;;;;;;1.77;0.80;;;;;;;41.01;3.44;99986.06;5048885;28;20446;-55
2022/05/20 06:56:55;;;;;;;0.93;0.85;;;;;;;41.13;3.34;99990.22;5038992;28;20030;-59
2022/05/20 06:59:20;;;;;;;0.90;0.80;;;;;;;41.42;2.96;100000.03;5045645;28;20029;-56
2022/05/20 07:01:46;;;;;;;1.08;0.80;;;;;;;41.60;2.29;99995.28;5042057;28;20071;-52
2022/05/20 07:04:11;;;;;;;1.85;0.95;;;;;;;41.22;2.50;99988.28;5031666;28;20049;-55
2022/05/20 07:06:38;;;;;;;0.80;0.80;;;;;;;40.15;3.23;99986.09;5032351;28;20064;-50
2022/05/20 07:09:05;;;;;;;1.60;0.95;;;;;;;38.95;3.91;100001.13;5042639;28;20033;-53
2022/05/20 07:11:31;;;;;;;1.15;1.00;;;;;;;39.10;4.27;99988.78;5030493;28;20035;-56
2022/05/20 07:13:58;;;;;;;0.93;0.82;;;;;;;40.25;3.71;99992.59;5035244;28;20029;-55
2022/05/20 07:16:29;;;;;;;2.42;1.05;;;;;;;41.47;3.05;99997.06;5049394;28;20033;-53
2022/05/20 07:18:54;;;;;;;1.00;1.00;;;;;;;41.19;3.17;100000.16;5052306;28;20108;-56
2022/05/20 07:21:20;;;;;;;1.25;1.15;;;;;;;40.82;3.75;99997.53;5045759;28;20117;-56
2022/05/20 07:23:46;;;;;;;1.48;1.38;;;;;;;40.96;3.33;99997.44;5048355;28;20353;-59
2022/05/20 07:26:13;;;;;;;1.35;1.25;;;;;;;40.27;3.39;99996.78;5053936;28;20503;-60
2022/05/20 07:28:39;;;;;;;2.33;1.17;;;;;;;40.71;3.36;99997.00;5052757;28;20041;-59
2022/05/20 07:31:06;;;;;;;1.30;1.20;;;;;;;41.22;2.95;99991.06;5053294;28;20082;-55
2022/05/20 07:33:32;;;;;;;2.20;1.30;;;;;;;40.81;2.85;100000.69;5044407;28;20076;-61
2022/05/20 07:35:59;;;;;;;1.60;1.10;;;;;;;40.27;2.63;99999.56;5033874;28;20116;-62
2022/05/20 07:38:25;;;;;;;2.45;1.15;;;;;;;39.78;3.12;100012.53;5052199;28;20033;-60
2022/05/20 07:40:53;;;;;;;1.65;1.10;;;;;;;39.78;2.88;99985.31;5052825;28;20071;-61
2022/05/20 07:43:22;;;;;;;2.25;1.20;;;;;;;40.93;2.30;100005.69;5034739;28;20033;-58
2022/05/20 07:45:49;;;;;;;1.88;1.23;;;;;;;41.33;2.32;100026.13;5051027;28;20044;-59
2022/05/20 07:48:15;;;;;;;0.80;0.80;;;;;;;41.66;2.12;99999.59;5052531;28;20037;-61
2022/05/20 07:50:45;;;;;;;1.40;1.00;;;;;;;42.45;2.18;100022.03;5042527;28;20102;-58
2022/05/20 07:53:20;;;;;;;1.50;1.10;;;;;;;42.51;2.14;100021.84;5049117;28;20412;-62
2022/05/20 07:55:51;;;;;;;7.78;1.45;;;;;;;41.99;2.39;100029.19;5053189;28;20029;-59
2022/05/20 07:58:18;;;;;;;2.00;1.30;;;;;;;40.81;2.64;100023.16;5052470;28;20528;-57
2022/05/20 08:00:45;;;;;;;2.70;1.23;;;;;;;38.93;3.13;100011.81;5036621;28;20076;-60
2022/05/20 08:04:52;;;;;;;2.55;1.20;;;;;;;37.85;4.07;100014.47;5045361;28;20033;-60
2022/05/20 08:05:58;;;;;;;1.77;1.25;;;;;;;37.70;4.31;100001.56;5040736;28;20037;-60
2022/05/20 08:08:24;;;;;;;2.20;1.20;;;;;;;37.12;4.00;100001.47;5053081;28;20032;-61
2022/05/20 08:10:49;;;;;;;1.50;1.30;;;;;;;36.63;4.49;99998.66;5047665;28;20034;-62
2022/05/20 08:13:15;;;;;;;3.40;0.90;;;;;;;35.65;3.79;99999.44;5045259;28;20051;-60
2022/05/20 08:15:40;;;;;;;0.70;0.70;;;;;;;33.25;4.92;99999.81;5051772;28;20480;-60
2022/05/20 08:18:06;;;;;;;1.55;0.95;;;;;;;29.92;6.43;100007.41;5052130;28;20377;-61
2022/05/20 08:20:32;;;;;;;5.03;0.80;;;;;;;26.70;8.28;99995.00;5052753;28;20477;-58
2022/05/20 08:22:58;;;;;;;2.83;0.75;;;;;;;23.85;10.21;99996.22;5049190;28;20048;-63
2022/05/20 08:25:25;;;;;;;0.80;0.80;;;;;;;22.00;11.29;100005.59;5043111;28;20255;-64
2022/05/20 08:27:51;;;;;;;2.05;0.70;;;;;;;20.27;13.18;99974.81;5046578;28;20178;-62
2022/05/20 08:30:23;;;;;;;2.13;1.35;;;;;;;19.49;14.17;100007.44;5050248;28;20073;-61
2022/05/20 08:32:49;;;;;;;0.98;0.60;;;;;;;18.53;15.53;99993.81;5051504;28;20049;-62
2022/05/20 08:35:15;;;;;;;4.13;1.10;;;;;;;17.92;15.23;99997.69;5052922;28;20051;-62
2022/05/20 08:37:44;;;;;;;3.50;1.05;;;;;;;17.23;15.69;100004.13;5043017;28;20121;-60
2022/05/20 08:40:13;;;;;;;1.98;0.80;;;;;;;16.51;16.33;100013.31;5032516;28;20108;-54
2022/05/20 08:42:40;;;;;;;0.75;0.70;;;;;;;16.01;17.01;100001.28;5037190;28;20159;-59
2022/05/20 08:45:07;;;;;;;4.40;0.85;;;;;;;15.34;17.93;99997.06;5051573;28;20025;-61
2022/05/20 08:47:45;;;;;;;2.65;1.10;;;;;;;15.17;19.02;99985.19;5051409;28;20033;-62
2022/05/20 08:50:23;;;;;;;2.55;0.93;;;;;;;15.26;19.14;99992.41;5052802;28;20033;-56
2022/05/20 08:52:54;;;;;;;3.28;1.20;;;;;;;15.31;20.07;99976.59;5050394;28;20142;-57
2022/05/20 08:55:20;;;;;;;3.67;0.93;;;;;;;15.41;20.37;99992.75;5052141;28;20033;-58
2022/05/20 08:57:55;;;;;;;3.28;0.82;;;;;;;15.39;19.82;99977.69;5052326;28;20036;-55
2022/05/20 09:00:21;;;;;;;3.37;0.90;;;;;;;15.38;20.08;99992.19;5051871;28;20033;-53
2022/05/20 09:02:46;;;;;;;5.05;1.17;;;;;;;15.31;19.23;99984.69;5043809;28;20116;-56
2022/05/20 09:05:33;;;;;;;2.63;0.80;;;;;;;15.11;19.30;99981.28;5049066;28;20037;-60
2022/05/20 09:08:02;;;;;;;3.38;0.90;;;;;;;14.93;19.71;99989.28;5040986;28;20052;-55
2022/05/20 09:10:38;;;;;;;2.28;0.80;;;;;;;14.75;19.98;99983.81;5032283;28;20116;-60
2022/05/20 09:16:22;;;;;;;1.42;0.88;;;;;;;14.82;20.32;99984.09;5045145;28;20116;-58
2022/05/20 09:19:23;;;;;;;3.08;0.85;;;;;;;15.02;20.27;99979.44;5037780;28;20107;-57
2022/05/20 09:22:17;;;;;;;2.05;1.00;;;;;;;14.99;20.27;99977.91;5032293;28;20112;-57
2022/05/20 09:24:45;;;;;;;2.42;0.95;;;;;;;14.92;21.25;99966.88;5031392;28;20061;-57
2022/05/20 09:27:13;;;;;;;2.25;0.90;;;;;;;14.91;21.21;99967.88;5034782;28;20115;-59
2022/05/20 09:29:55;;;;;;;2.97;1.00;;;;;;;15.09;21.51;99966.22;5051433;28;20029;-59
2022/05/20 09:32:26;;;;;;;2.55;0.82;;;;;;;14.99;20.18;99960.88;5031707;28;20033;-58
2022/05/20 09:35:01;;;;;;;1.60;1.00;;;;;;;15.10;20.54;99963.41;5031633;28;20644;-59
2022/05/20 09:37:30;;;;;;;1.20;0.77;;;;;;;15.10;22.09;99965.22;5031592;28;20430;-57
2022/05/20 09:39:56;;;;;;;1.42;0.80;;;;;;;15.07;20.21;99953.75;5032633;28;20474;-59
2022/05/20 09:42:21;;;;;;;2.90;0.85;;;;;;;14.87;21.49;99955.69;5048765;28;20033;-57
2022/05/20 09:44:54;;;;;;;6.03;0.90;;;;;;;14.82;22.44;99966.06;5031468;28;20118;-54
2022/05/20 09:47:41;;;;;;;2.35;0.80;;;;;;;14.85;21.25;99976.56;5050610;28;20033;-53
2022/05/20 09:50:34;;;;;;;1.70;0.65;;;;;;;14.83;21.23;99970.47;5050372;28;20053;-54
2022/05/20 09:53:01;;;;;;;0.80;0.60;;;;;;;14.69;21.41;99966.34;5048130;28;20028;-54
2022/05/20 09:55:32;;;;;;;0.95;0.75;;;;;;;14.64;21.37;99969.50;5050725;28;20029;-53
2022/05/20 09:58:15;;;;;;;1.38;0.70;;;;;;;14.31;21.16;99915.16;5047316;28;20121;-57
2022/05/20 10:00:52;;;;;;;1.52;0.65;;;;;;;14.66;21.52;99963.97;5035625;28;20104;-54
2022/05/20 10:03:33;;;;;;;0.90;0.70;;;;;;;14.69;21.28;99966.34;5050817;28;20040;-55
2022/05/20 10:06:15;;;;;;;3.08;0.75;;;;;;;14.70;21.10;99959.97;5050150;28;20041;-56
2022/05/20 10:09:08;;;;;;;2.38;0.60;;;;;;;14.59;21.26;99928.69;5042509;28;20132;-55
2022/05/20 10:11:45;;;;;;;1.83;1.05;;;;;;;14.70;22.62;99956.44;5042584;28;20049;-64
2022/05/20 10:14:21;;;;;;;1.50;0.90;;;;;;;14.71;21.53;99963.56;5040603;28;20044;-57
2022/05/20 10:17:08;;;;;;;1.75;0.80;;;;;;;14.76;20.92;99953.19;5037068;28;20044;-53
2022/05/20 10:19:39;;;;;;;1.15;0.63;;;;;;;14.57;21.24;99951.38;5045577;28;20052;-57
2022/05/20 10:22:39;;;;;;;1.85;0.75;;;;;;;14.54;21.89;99947.13;5046625;28;20087;-55
2022/05/20 10:25:16;;;;;;;1.50;0.80;;;;;;;14.33;21.45;99901.53;5042405;28;20103;-52
2022/05/20 10:28:00;;;;;;;0.88;0.60;;;;;;;14.70;21.89;99956.44;5049708;28;20104;-54
2022/05/20 10:33:28;;;;;;;0.80;0.70;;;;;;;14.75;21.23;99943.41;5031026;28;20130;-52
2022/05/20 10:36:26;;;;;;;1.00;0.60;;;;;;;14.82;21.56;99941.78;5030735;28;20029;-53
2022/05/20 10:38:59;;;;;;;2.70;0.70;;;;;;;14.84;21.14;99947.91;5040952;28;20025;-53
2022/05/20 10:41:50;;;;;;;0.80;0.60;;;;;;;14.86;21.48;99935.13;5046777;28;20025;-53
2022/05/20 10:51:13;;;;;;;2.22;0.80;;;;;;;14.96;20.33;99929.69;5050041;28;20083;-53
2022/05/20 10:53:50;;;;;;;1.90;0.65;;;;;;;14.88;20.52;99934.97;5051610;28;20029;-54
2022/05/20 10:56:28;;;;;;;1.13;0.60;;;;;;;14.89;20.79;99925.88;5054571;28;20182;-53
2022/05/20 10:59:44;;;;;;;1.15;0.70;;;;;;;14.96;20.14;99924.31;5054263;28;20036;-51
2022/05/20 11:02:54;;;;;;;1.52;0.70;;;;;;;14.77;20.73;99925.22;5052961;28;20474;-55
2022/05/20 11:05:54;;;;;;;1.77;0.77;;;;;;;14.73;20.67;99924.69;5054516;28;20545;-53
2022/05/20 11:08:44;;;;;;;0.90;0.70;;;;;;;14.46;20.72;99923.59;5054439;28;20032;-51
2022/05/20 11:11:12;;;;;;;1.65;0.77;;;;;;;14.21;21.09;99915.16;5054559;28;20041;-53
2022/05/20 11:14:15;;;;;;;2.25;0.82;;;;;;;14.26;21.24;99919.28;5054371;28;20044;-52
2022/05/20 11:17:11;;;;;;;2.08;0.80;;;;;;;14.16;21.84;99922.84;5054189;28;20033;-55
2022/05/20 11:20:03;;;;;;;0.85;0.70;;;;;;;14.00;22.12;99917.22;5053008;28;20136;-52
2022/05/20 11:22:34;;;;;;;0.80;0.70;;;;;;;13.99;21.44;99907.44;5054113;28;20077;-51
2022/05/20 11:25:22;;;;;;;3.15;2.20;;;;;;;14.19;21.86;99905.56;5053401;28;20110;-55
2022/05/20 11:28:02;;;;;;;1.42;0.80;;;;;;;14.25;21.97;99901.44;5053670;28;20512;-53
2022/05/20 11:30:51;;;;;;;2.88;1.00;;;;;;;14.28;22.03;99898.44;5053680;28;20464;-50
2022/05/20 11:33:39;;;;;;;1.95;0.75;;;;;;;14.33;21.72;99896.16;5053672;28;20107;-57
2022/05/20 11:36:24;;;;;;;1.70;0.80;;;;;;;14.47;20.90;99893.00;5053695;28;20105;-51
2022/05/20 11:38:55;;;;;;;1.17;0.88;;;;;;;14.31;20.79;99898.16;5053626;28;20040;-50
2022/05/20 11:41:58;;;;;;;2.53;0.90;;;;;;;14.44;20.86;99906.75;5053831;28;20119;-52
2022/05/20 11:45:16;;;;;;;3.35;0.55;;;;;;;14.44;20.92;99901.34;5053519;28;20108;-51
2022/05/20 11:47:55;;;;;;;1.85;0.63;;;;;;;14.41;21.06;99898.13;5044886;28;20041;-52
2022/05/20 11:50:41;;;;;;;1.08;0.70;;;;;;;14.50;20.92;99892.69;5053157;28;20033;-51
2022/05/20 11:53:24;;;;;;;1.67;0.75;;;;;;;14.52;20.90;99879.06;5053648;28;20154;-46
2022/05/20 11:56:05;;;;;;;2.33;0.70;;;;;;;14.56;21.07;99879.63;5053027;28;20029;-52
2022/05/20 11:58:41;;;;;;;2.22;0.70;;;;;;;14.59;21.04;99879.34;5052971;28;20029;-48
2022/05/20 12:01:08;;;;;;;1.25;0.73;;;;;;;14.57;20.78;99875.94;5053283;28;20033;-51
2022/05/20 12:06:23;;;;;;;1.77;0.73;;;;;;;14.50;21.07;99868.47;5051780;28;20120;-50
2022/05/20 12:08:51;;;;;;;3.10;0.73;;;;;;;14.42;21.61;99873.72;5052878;28;20036;-49
2022/05/20 12:11:37;;;;;;;1.52;0.85;;;;;;;14.49;22.06;99868.59;5052749;28;20384;-55
2022/05/20 12:14:07;;;;;;;1.70;0.90;;;;;;;14.33;21.15;99863.84;5052688;28;20164;-52
2022/05/20 12:16:52;;;;;;;1.73;0.90;;;;;;;14.22;21.48;99856.78;5052538;28;20040;-47
2022/05/20 12:24:52;;;;;;;2.88;0.57;;;;;;;14.06;21.76;99852.84;5052410;28;20049;-50
2022/05/20 12:27:23;;;;;;;2.72;1.00;;;;;;;14.18;21.86;99850.84;5052622;28;20029;-53
2022/05/20 12:30:04;;;;;;;3.15;0.80;;;;;;;14.30;21.64;99845.28;5052290;28;20036;-50
2022/05/20 12:32:35;;;;;;;2.53;0.85;;;;;;;14.39;21.91;99846.25;5052669;28;20025;-51
2022/05/20 12:35:07;;;;;;;2.10;0.90;;;;;;;14.41;21.60;99845.09;5052347;28;20029;-50
2022/05/20 12:37:41;;;;;;;5.05;0.80;;;;;;;14.41;22.13;99838.88;5052464;28;20492;-54